sensor_id;sensor_type;location;lat;lon;timestamp;P1;P2;P0
64229;PMS5003;50547;49.498;0.092;2022-08-19T00:02:01;5;5;
64229;PMS5003;50547;49.498;0.092;2022-08-19T00:04:32;6;6;
64229;PMS5003;50547;49.498;0.092;2022-08-19T00:07:03;5;5;
64229;PMS5003;50547;49.498;0.092;2022-08-19T00:09:34;5;5;
64229;PMS5003;50547;49.498;0.092;2022-08-19T00:12:03;4;4;
64229;PMS5003;50547;49.498;0.092;2022-08-19T00:14:33;6;6;
64229;PMS5003;50547;49.498;0.092;2022-08-19T00:17:02;6;6;
64229;PMS5003;50547;49.498;0.092;2022-08-19T00:19:32;5;5;
64229;PMS5003;50547;49.498;0.092;2022-08-19T00:22:02;4;4;
64229;PMS5003;50547;49.498;0.092;2022-08-19T00:24:31;5;5;
64229;PMS5003;50547;49.498;0.092;2022-08-19T00:27:01;4;4;
64229;PMS5003;50547;49.498;0.092;2022-08-19T00:29:30;5;5;
64229;PMS5003;50547;49.498;0.092;2022-08-19T00:32:00;5;5;
64229;PMS5003;50547;49.498;0.092;2022-08-19T00:34:29;6;6;
64229;PMS5003;50547;49.498;0.092;2022-08-19T00:36:58;5;5;
64229;PMS5003;50547;49.498;0.092;2022-08-19T00:39:27;4;4;
64229;PMS5003;50547;49.498;0.092;2022-08-19T00:41:56;4;4;
64229;PMS5003;50547;49.498;0.092;2022-08-19T00:44:25;4;4;
64229;PMS5003;50547;49.498;0.092;2022-08-19T00:46:57;4;4;
64229;PMS5003;50547;49.498;0.092;2022-08-19T00:49:28;4;4;
64229;PMS5003;50547;49.498;0.092;2022-08-19T00:52:00;4;4;
64229;PMS5003;50547;49.498;0.092;2022-08-19T00:54:33;4;4;
64229;PMS5003;50547;49.498;0.092;2022-08-19T00:57:03;4;4;
64229;PMS5003;50547;49.498;0.092;2022-08-19T00:59:35;4;4;
64229;PMS5003;50547;49.498;0.092;2022-08-19T01:02:07;5;5;
64229;PMS5003;50547;49.498;0.092;2022-08-19T01:04:36;6;6;
64229;PMS5003;50547;49.498;0.092;2022-08-19T01:07:05;6;6;
64229;PMS5003;50547;49.498;0.092;2022-08-19T01:09:35;6;6;
64229;PMS5003;50547;49.498;0.092;2022-08-19T01:12:05;6;6;
64229;PMS5003;50547;49.498;0.092;2022-08-19T01:14:34;6;6;
64229;PMS5003;50547;49.498;0.092;2022-08-19T01:17:06;6;6;
64229;PMS5003;50547;49.498;0.092;2022-08-19T01:19:37;7;7;
64229;PMS5003;50547;49.498;0.092;2022-08-19T01:22:11;6;6;
64229;PMS5003;50547;49.498;0.092;2022-08-19T01:24:44;5;5;
64229;PMS5003;50547;49.498;0.092;2022-08-19T01:27:14;7;7;
64229;PMS5003;50547;49.498;0.092;2022-08-19T01:29:43;5;5;
64229;PMS5003;50547;49.498;0.092;2022-08-19T01:32:15;7;7;
64229;PMS5003;50547;49.498;0.092;2022-08-19T01:34:45;6;6;
64229;PMS5003;50547;49.498;0.092;2022-08-19T01:37:14;5;5;
64229;PMS5003;50547;49.498;0.092;2022-08-19T01:39:44;4;4;
64229;PMS5003;50547;49.498;0.092;2022-08-19T01:42:13;4;4;
64229;PMS5003;50547;49.498;0.092;2022-08-19T01:44:42;4;4;
64229;PMS5003;50547;49.498;0.092;2022-08-19T01:47:11;4;4;
64229;PMS5003;50547;49.498;0.092;2022-08-19T01:49:40;4;4;
64229;PMS5003;50547;49.498;0.092;2022-08-19T01:52:09;4;4;
64229;PMS5003;50547;49.498;0.092;2022-08-19T01:54:38;4;4;
64229;PMS5003;50547;49.498;0.092;2022-08-19T01:57:08;4;4;
64229;PMS5003;50547;49.498;0.092;2022-08-19T01:59:41;4;4;
64229;PMS5003;50547;49.498;0.092;2022-08-19T02:02:12;4;4;
64229;PMS5003;50547;49.498;0.092;2022-08-19T02:04:41;4;4;
64229;PMS5003;50547;49.498;0.092;2022-08-19T02:07:11;5;5;
64229;PMS5003;50547;49.498;0.092;2022-08-19T02:09:40;4;4;
64229;PMS5003;50547;49.498;0.092;2022-08-19T02:12:10;4;4;
64229;PMS5003;50547;49.498;0.092;2022-08-19T02:14:39;5;5;
64229;PMS5003;50547;49.498;0.092;2022-08-19T02:17:08;4;4;
64229;PMS5003;50547;49.498;0.092;2022-08-19T02:19:37;4;4;
64229;PMS5003;50547;49.498;0.092;2022-08-19T02:22:06;3;3;
64229;PMS5003;50547;49.498;0.092;2022-08-19T02:24:35;4;4;
64229;PMS5003;50547;49.498;0.092;2022-08-19T02:27:04;4;4;
64229;PMS5003;50547;49.498;0.092;2022-08-19T02:29:34;4;4;
64229;PMS5003;50547;49.498;0.092;2022-08-19T02:32:03;4;4;
64229;PMS5003;50547;49.498;0.092;2022-08-19T02:34:32;4;4;
64229;PMS5003;50547;49.498;0.092;2022-08-19T02:37:01;4;4;
64229;PMS5003;50547;49.498;0.092;2022-08-19T02:39:30;3;3;
64229;PMS5003;50547;49.498;0.092;2022-08-19T02:41:59;3;3;
64229;PMS5003;50547;49.498;0.092;2022-08-19T02:44:28;3;3;
64229;PMS5003;50547;49.498;0.092;2022-08-19T02:46:57;3;3;
64229;PMS5003;50547;49.498;0.092;2022-08-19T02:49:27;2;2;
64229;PMS5003;50547;49.498;0.092;2022-08-19T02:51:56;4;4;
64229;PMS5003;50547;49.498;0.092;2022-08-19T02:54:24;3;3;
64229;PMS5003;50547;49.498;0.092;2022-08-19T02:56:54;3;3;
64229;PMS5003;50547;49.498;0.092;2022-08-19T02:59:22;3;3;
64229;PMS5003;50547;49.498;0.092;2022-08-19T03:01:52;3;3;
64229;PMS5003;50547;49.498;0.092;2022-08-19T03:04:20;3;3;
64229;PMS5003;50547;49.498;0.092;2022-08-19T03:06:50;3;3;
64229;PMS5003;50547;49.498;0.092;2022-08-19T03:09:20;3;3;
64229;PMS5003;50547;49.498;0.092;2022-08-19T03:11:49;3;3;
64229;PMS5003;50547;49.498;0.092;2022-08-19T03:14:18;3;3;
64229;PMS5003;50547;49.498;0.092;2022-08-19T03:16:48;3;3;
64229;PMS5003;50547;49.498;0.092;2022-08-19T03:19:19;3;3;
64229;PMS5003;50547;49.498;0.092;2022-08-19T03:21:49;3;3;
64229;PMS5003;50547;49.498;0.092;2022-08-19T03:24:20;3;3;
64229;PMS5003;50547;49.498;0.092;2022-08-19T03:26:50;3;3;
64229;PMS5003;50547;49.498;0.092;2022-08-19T03:29:22;1;1;
64229;PMS5003;50547;49.498;0.092;2022-08-19T03:31:51;3;3;
64229;PMS5003;50547;49.498;0.092;2022-08-19T03:34:26;4;4;
64229;PMS5003;50547;49.498;0.092;2022-08-19T03:36:57;3;3;
64229;PMS5003;50547;49.498;0.092;2022-08-19T03:39:27;3;3;
64229;PMS5003;50547;49.498;0.092;2022-08-19T03:41:57;3;3;
64229;PMS5003;50547;49.498;0.092;2022-08-19T03:44:26;3;3;
64229;PMS5003;50547;49.498;0.092;2022-08-19T03:46:56;3;3;
64229;PMS5003;50547;49.498;0.092;2022-08-19T03:49:28;2;2;
64229;PMS5003;50547;49.498;0.092;2022-08-19T03:51:59;4;4;
64229;PMS5003;50547;49.498;0.092;2022-08-19T03:54:28;3;3;
64229;PMS5003;50547;49.498;0.092;2022-08-19T03:56:57;3;3;
64229;PMS5003;50547;49.498;0.092;2022-08-19T03:59:32;3;3;
64229;PMS5003;50547;49.498;0.092;2022-08-19T04:02:05;3;3;
64229;PMS5003;50547;49.498;0.092;2022-08-19T04:04:37;3;3;
64229;PMS5003;50547;49.498;0.092;2022-08-19T04:07:06;4;4;
64229;PMS5003;50547;49.498;0.092;2022-08-19T04:09:36;3;3;
64229;PMS5003;50547;49.498;0.092;2022-08-19T04:12:06;3;3;
64229;PMS5003;50547;49.498;0.092;2022-08-19T04:14:36;3;3;
64229;PMS5003;50547;49.498;0.092;2022-08-19T04:17:05;3;3;
64229;PMS5003;50547;49.498;0.092;2022-08-19T04:19:34;4;4;
64229;PMS5003;50547;49.498;0.092;2022-08-19T04:22:04;4;4;
64229;PMS5003;50547;49.498;0.092;2022-08-19T04:24:34;4;4;
64229;PMS5003;50547;49.498;0.092;2022-08-19T04:27:03;4;4;
64229;PMS5003;50547;49.498;0.092;2022-08-19T04:29:33;3;3;
64229;PMS5003;50547;49.498;0.092;2022-08-19T04:32:02;4;4;
64229;PMS5003;50547;49.498;0.092;2022-08-19T04:34:32;4;4;
64229;PMS5003;50547;49.498;0.092;2022-08-19T04:37:01;4;4;
64229;PMS5003;50547;49.498;0.092;2022-08-19T04:39:33;4;4;
64229;PMS5003;50547;49.498;0.092;2022-08-19T04:42:02;4;4;
64229;PMS5003;50547;49.498;0.092;2022-08-19T04:44:32;4;4;
64229;PMS5003;50547;49.498;0.092;2022-08-19T04:47:03;4;4;
64229;PMS5003;50547;49.498;0.092;2022-08-19T04:49:32;4;4;
64229;PMS5003;50547;49.498;0.092;2022-08-19T04:52:01;5;5;
64229;PMS5003;50547;49.498;0.092;2022-08-19T04:54:31;4;4;
64229;PMS5003;50547;49.498;0.092;2022-08-19T04:57:00;4;4;
64229;PMS5003;50547;49.498;0.092;2022-08-19T04:59:29;4;4;
64229;PMS5003;50547;49.498;0.092;2022-08-19T05:01:58;4;4;
64229;PMS5003;50547;49.498;0.092;2022-08-19T05:04:27;4;4;
64229;PMS5003;50547;49.498;0.092;2022-08-19T05:06:56;4;4;
64229;PMS5003;50547;49.498;0.092;2022-08-19T05:09:25;5;5;
64229;PMS5003;50547;49.498;0.092;2022-08-19T05:11:54;6;6;
64229;PMS5003;50547;49.498;0.092;2022-08-19T05:14:23;4;4;
64229;PMS5003;50547;49.498;0.092;2022-08-19T05:16:52;4;4;
64229;PMS5003;50547;49.498;0.092;2022-08-19T05:19:21;4;4;
64229;PMS5003;50547;49.498;0.092;2022-08-19T05:21:50;4;4;
64229;PMS5003;50547;49.498;0.092;2022-08-19T05:24:20;5;5;
64229;PMS5003;50547;49.498;0.092;2022-08-19T05:26:51;4;4;
64229;PMS5003;50547;49.498;0.092;2022-08-19T05:29:22;5;5;
64229;PMS5003;50547;49.498;0.092;2022-08-19T05:31:53;4;4;
64229;PMS5003;50547;49.498;0.092;2022-08-19T05:34:23;4;4;
64229;PMS5003;50547;49.498;0.092;2022-08-19T05:36:54;5;5;
64229;PMS5003;50547;49.498;0.092;2022-08-19T05:39:25;5;5;
64229;PMS5003;50547;49.498;0.092;2022-08-19T05:41:56;6;6;
64229;PMS5003;50547;49.498;0.092;2022-08-19T05:44:30;6;6;
64229;PMS5003;50547;49.498;0.092;2022-08-19T05:47:01;5;5;
64229;PMS5003;50547;49.498;0.092;2022-08-19T05:49:33;5;5;
64229;PMS5003;50547;49.498;0.092;2022-08-19T05:52:02;6;6;
64229;PMS5003;50547;49.498;0.092;2022-08-19T05:54:32;7;7;
64229;PMS5003;50547;49.498;0.092;2022-08-19T05:57:02;6;6;
64229;PMS5003;50547;49.498;0.092;2022-08-19T05:59:32;5;5;
64229;PMS5003;50547;49.498;0.092;2022-08-19T06:02:01;6;6;
64229;PMS5003;50547;49.498;0.092;2022-08-19T06:04:33;5;5;
64229;PMS5003;50547;49.498;0.092;2022-08-19T06:07:02;6;6;
64229;PMS5003;50547;49.498;0.092;2022-08-19T06:09:31;7;7;
64229;PMS5003;50547;49.498;0.092;2022-08-19T06:12:01;5;5;
64229;PMS5003;50547;49.498;0.092;2022-08-19T06:14:32;6;6;
64229;PMS5003;50547;49.498;0.092;2022-08-19T06:17:03;6;6;
64229;PMS5003;50547;49.498;0.092;2022-08-19T06:19:32;7;7;
64229;PMS5003;50547;49.498;0.092;2022-08-19T06:22:01;6;6;
64229;PMS5003;50547;49.498;0.092;2022-08-19T06:24:30;6;6;
64229;PMS5003;50547;49.498;0.092;2022-08-19T06:26:59;6;6;
64229;PMS5003;50547;49.498;0.092;2022-08-19T06:29:29;6;6;
64229;PMS5003;50547;49.498;0.092;2022-08-19T06:31:59;7;7;
64229;PMS5003;50547;49.498;0.092;2022-08-19T06:34:30;6;6;
64229;PMS5003;50547;49.498;0.092;2022-08-19T06:37:01;7;7;
64229;PMS5003;50547;49.498;0.092;2022-08-19T06:39:32;6;6;
64229;PMS5003;50547;49.498;0.092;2022-08-19T06:42:03;7;7;
64229;PMS5003;50547;49.498;0.092;2022-08-19T06:44:34;6;6;
64229;PMS5003;50547;49.498;0.092;2022-08-19T06:47:05;6;6;
64229;PMS5003;50547;49.498;0.092;2022-08-19T06:49:36;5;5;
64229;PMS5003;50547;49.498;0.092;2022-08-19T06:52:05;5;5;
64229;PMS5003;50547;49.498;0.092;2022-08-19T06:54:34;5;5;
64229;PMS5003;50547;49.498;0.092;2022-08-19T06:57:03;6;6;
64229;PMS5003;50547;49.498;0.092;2022-08-19T06:59:33;5;5;
64229;PMS5003;50547;49.498;0.092;2022-08-19T07:02:03;6;6;
64229;PMS5003;50547;49.498;0.092;2022-08-19T07:04:35;5;5;
64229;PMS5003;50547;49.498;0.092;2022-08-19T07:07:05;5;5;
64229;PMS5003;50547;49.498;0.092;2022-08-19T07:09:37;5;5;
64229;PMS5003;50547;49.498;0.092;2022-08-19T07:12:09;5;5;
64229;PMS5003;50547;49.498;0.092;2022-08-19T07:14:37;5;5;
64229;PMS5003;50547;49.498;0.092;2022-08-19T07:17:14;5;5;
64229;PMS5003;50547;49.498;0.092;2022-08-19T07:19:43;6;6;
64229;PMS5003;50547;49.498;0.092;2022-08-19T07:22:13;5;5;
64229;PMS5003;50547;49.498;0.092;2022-08-19T07:24:47;5;5;
64229;PMS5003;50547;49.498;0.092;2022-08-19T07:27:16;5;5;
64229;PMS5003;50547;49.498;0.092;2022-08-19T07:29:48;5;5;
64229;PMS5003;50547;49.498;0.092;2022-08-19T07:32:17;5;5;
64229;PMS5003;50547;49.498;0.092;2022-08-19T07:34:46;5;5;
64229;PMS5003;50547;49.498;0.092;2022-08-19T07:37:15;4;4;
64229;PMS5003;50547;49.498;0.092;2022-08-19T07:39:44;5;5;
64229;PMS5003;50547;49.498;0.092;2022-08-19T07:42:13;5;5;
64229;PMS5003;50547;49.498;0.092;2022-08-19T07:44:42;4;4;
64229;PMS5003;50547;49.498;0.092;2022-08-19T07:47:11;4;4;
64229;PMS5003;50547;49.498;0.092;2022-08-19T07:49:38;6;6;
64229;PMS5003;50547;49.498;0.092;2022-08-19T07:52:08;5;5;
64229;PMS5003;50547;49.498;0.092;2022-08-19T07:54:44;5;5;
64229;PMS5003;50547;49.498;0.092;2022-08-19T07:57:24;4;4;
64229;PMS5003;50547;49.498;0.092;2022-08-19T07:59:54;5;5;
64229;PMS5003;50547;49.498;0.092;2022-08-19T08:02:23;4;4;
64229;PMS5003;50547;49.498;0.092;2022-08-19T08:04:52;4;4;
64229;PMS5003;50547;49.498;0.092;2022-08-19T08:07:21;3;3;
64229;PMS5003;50547;49.498;0.092;2022-08-19T08:09:50;4;4;
64229;PMS5003;50547;49.498;0.092;2022-08-19T08:12:26;4;4;
64229;PMS5003;50547;49.498;0.092;2022-08-19T08:14:57;3;3;
64229;PMS5003;50547;49.498;0.092;2022-08-19T08:17:25;4;4;
64229;PMS5003;50547;49.498;0.092;2022-08-19T08:19:56;4;4;
64229;PMS5003;50547;49.498;0.092;2022-08-19T08:22:25;4;4;
64229;PMS5003;50547;49.498;0.092;2022-08-19T08:24:55;4;4;
64229;PMS5003;50547;49.498;0.092;2022-08-19T08:27:25;4;4;
64229;PMS5003;50547;49.498;0.092;2022-08-19T08:29:54;4;4;
64229;PMS5003;50547;49.498;0.092;2022-08-19T08:32:22;4;4;
64229;PMS5003;50547;49.498;0.092;2022-08-19T08:34:52;4;4;
64229;PMS5003;50547;49.498;0.092;2022-08-19T08:37:18;4;4;
64229;PMS5003;50547;49.498;0.092;2022-08-19T08:39:48;3;3;
64229;PMS5003;50547;49.498;0.092;2022-08-19T08:42:19;3;3;
64229;PMS5003;50547;49.498;0.092;2022-08-19T08:44:59;3;3;
64229;PMS5003;50547;49.498;0.092;2022-08-19T08:47:32;4;4;
64229;PMS5003;50547;49.498;0.092;2022-08-19T08:50:07;3;3;
64229;PMS5003;50547;49.498;0.092;2022-08-19T08:52:43;4;4;
64229;PMS5003;50547;49.498;0.092;2022-08-19T08:55:16;4;4;
64229;PMS5003;50547;49.498;0.092;2022-08-19T08:57:52;4;4;
64229;PMS5003;50547;49.498;0.092;2022-08-19T09:00:28;3;3;
64229;PMS5003;50547;49.498;0.092;2022-08-19T09:03:01;4;4;
64229;PMS5003;50547;49.498;0.092;2022-08-19T09:05:36;4;4;
64229;PMS5003;50547;49.498;0.092;2022-08-19T09:08:08;4;4;
64229;PMS5003;50547;49.498;0.092;2022-08-19T09:10:52;3;3;
64229;PMS5003;50547;49.498;0.092;2022-08-19T09:13:25;3;3;
64229;PMS5003;50547;49.498;0.092;2022-08-19T09:16:05;4;4;
64229;PMS5003;50547;49.498;0.092;2022-08-19T09:18:39;4;4;
64229;PMS5003;50547;49.498;0.092;2022-08-19T09:21:11;4;4;
64229;PMS5003;50547;49.498;0.092;2022-08-19T09:23:41;4;4;
64229;PMS5003;50547;49.498;0.092;2022-08-19T09:26:08;4;4;
64229;PMS5003;50547;49.498;0.092;2022-08-19T09:28:38;4;4;
64229;PMS5003;50547;49.498;0.092;2022-08-19T09:31:07;4;4;
64229;PMS5003;50547;49.498;0.092;2022-08-19T09:33:37;4;4;
64229;PMS5003;50547;49.498;0.092;2022-08-19T09:36:07;4;4;
64229;PMS5003;50547;49.498;0.092;2022-08-19T09:38:38;4;4;
64229;PMS5003;50547;49.498;0.092;2022-08-19T09:41:08;5;5;
64229;PMS5003;50547;49.498;0.092;2022-08-19T09:43:39;6;6;
64229;PMS5003;50547;49.498;0.092;2022-08-19T09:46:10;4;4;
64229;PMS5003;50547;49.498;0.092;2022-08-19T09:48:40;5;5;
64229;PMS5003;50547;49.498;0.092;2022-08-19T09:51:10;5;5;
64229;PMS5003;50547;49.498;0.092;2022-08-19T09:53:41;5;5;
64229;PMS5003;50547;49.498;0.092;2022-08-19T09:56:12;5;5;
64229;PMS5003;50547;49.498;0.092;2022-08-19T09:58:42;5;5;
64229;PMS5003;50547;49.498;0.092;2022-08-19T10:01:15;5;5;
64229;PMS5003;50547;49.498;0.092;2022-08-19T10:03:47;5;5;
64229;PMS5003;50547;49.498;0.092;2022-08-19T10:06:17;4;4;
64229;PMS5003;50547;49.498;0.092;2022-08-19T10:08:46;5;5;
64229;PMS5003;50547;49.498;0.092;2022-08-19T10:11:16;5;5;
64229;PMS5003;50547;49.498;0.092;2022-08-19T10:13:47;4;4;
64229;PMS5003;50547;49.498;0.092;2022-08-19T10:16:18;6;6;
64229;PMS5003;50547;49.498;0.092;2022-08-19T10:18:49;5;5;
64229;PMS5003;50547;49.498;0.092;2022-08-19T10:21:20;5;5;
64229;PMS5003;50547;49.498;0.092;2022-08-19T10:23:51;4;4;
64229;PMS5003;50547;49.498;0.092;2022-08-19T10:26:23;4;4;
64229;PMS5003;50547;49.498;0.092;2022-08-19T10:29:04;4;4;
64229;PMS5003;50547;49.498;0.092;2022-08-19T10:31:32;5;5;
64229;PMS5003;50547;49.498;0.092;2022-08-19T10:34:02;5;5;
64229;PMS5003;50547;49.498;0.092;2022-08-19T10:36:32;6;6;
64229;PMS5003;50547;49.498;0.092;2022-08-19T10:39:04;5;5;
64229;PMS5003;50547;49.498;0.092;2022-08-19T10:41:36;4;4;
64229;PMS5003;50547;49.498;0.092;2022-08-19T10:44:08;5;5;
64229;PMS5003;50547;49.498;0.092;2022-08-19T10:46:40;5;5;
64229;PMS5003;50547;49.498;0.092;2022-08-19T10:49:10;5;5;
64229;PMS5003;50547;49.498;0.092;2022-08-19T10:51:40;5;5;
64229;PMS5003;50547;49.498;0.092;2022-08-19T10:54:09;5;5;
64229;PMS5003;50547;49.498;0.092;2022-08-19T10:56:39;4;4;
64229;PMS5003;50547;49.498;0.092;2022-08-19T10:59:08;4;4;
64229;PMS5003;50547;49.498;0.092;2022-08-19T11:01:37;5;5;
64229;PMS5003;50547;49.498;0.092;2022-08-19T11:04:06;4;4;
64229;PMS5003;50547;49.498;0.092;2022-08-19T11:06:36;4;4;
64229;PMS5003;50547;49.498;0.092;2022-08-19T11:09:06;4;4;
64229;PMS5003;50547;49.498;0.092;2022-08-19T11:11:36;4;4;
64229;PMS5003;50547;49.498;0.092;2022-08-19T11:14:06;3;3;
64229;PMS5003;50547;49.498;0.092;2022-08-19T11:17:01;4;4;
64229;PMS5003;50547;49.498;0.092;2022-08-19T11:19:31;3;3;
64229;PMS5003;50547;49.498;0.092;2022-08-19T11:22:00;9;9;
64229;PMS5003;50547;49.498;0.092;2022-08-19T11:24:30;5;5;
64229;PMS5003;50547;49.498;0.092;2022-08-19T11:27:01;8;8;
64229;PMS5003;50547;49.498;0.092;2022-08-19T11:29:32;10;10;
64229;PMS5003;50547;49.498;0.092;2022-08-19T11:32:03;4;4;
64229;PMS5003;50547;49.498;0.092;2022-08-19T11:34:34;4;4;
64229;PMS5003;50547;49.498;0.092;2022-08-19T11:37:03;4;4;
64229;PMS5003;50547;49.498;0.092;2022-08-19T11:39:34;4;4;
64229;PMS5003;50547;49.498;0.092;2022-08-19T11:42:06;5;5;
64229;PMS5003;50547;49.498;0.092;2022-08-19T11:44:36;5;5;
64229;PMS5003;50547;49.498;0.092;2022-08-19T11:47:04;4;4;
64229;PMS5003;50547;49.498;0.092;2022-08-19T11:49:30;3;3;
64229;PMS5003;50547;49.498;0.092;2022-08-19T11:51:56;4;4;
64229;PMS5003;50547;49.498;0.092;2022-08-19T11:54:22;4;4;
64229;PMS5003;50547;49.498;0.092;2022-08-19T11:56:51;4;4;
64229;PMS5003;50547;49.498;0.092;2022-08-19T11:59:20;4;4;
64229;PMS5003;50547;49.498;0.092;2022-08-19T12:02:21;4;4;
64229;PMS5003;50547;49.498;0.092;2022-08-19T12:04:50;4;4;
64229;PMS5003;50547;49.498;0.092;2022-08-19T12:07:19;4;4;
64229;PMS5003;50547;49.498;0.092;2022-08-19T12:09:48;4;4;
64229;PMS5003;50547;49.498;0.092;2022-08-19T12:12:18;2;2;
64229;PMS5003;50547;49.498;0.092;2022-08-19T12:14:47;2;2;
64229;PMS5003;50547;49.498;0.092;2022-08-19T12:17:16;3;3;
64229;PMS5003;50547;49.498;0.092;2022-08-19T12:19:46;3;3;
64229;PMS5003;50547;49.498;0.092;2022-08-19T12:22:15;3;3;
64229;PMS5003;50547;49.498;0.092;2022-08-19T12:24:44;3;3;
64229;PMS5003;50547;49.498;0.092;2022-08-19T12:27:10;3;3;
64229;PMS5003;50547;49.498;0.092;2022-08-19T12:29:42;2;2;
64229;PMS5003;50547;49.498;0.092;2022-08-19T12:32:11;4;4;
64229;PMS5003;50547;49.498;0.092;2022-08-19T12:34:40;3;3;
64229;PMS5003;50547;49.498;0.092;2022-08-19T12:37:11;1;1;
64229;PMS5003;50547;49.498;0.092;2022-08-19T12:39:41;2;2;
64229;PMS5003;50547;49.498;0.092;2022-08-19T12:42:12;3;3;
64229;PMS5003;50547;49.498;0.092;2022-08-19T12:44:43;1;1;
64229;PMS5003;50547;49.498;0.092;2022-08-19T12:47:13;3;3;
64229;PMS5003;50547;49.498;0.092;2022-08-19T12:49:43;3;3;
64229;PMS5003;50547;49.498;0.092;2022-08-19T12:52:12;2;2;
64229;PMS5003;50547;49.498;0.092;2022-08-19T12:54:42;2;2;
64229;PMS5003;50547;49.498;0.092;2022-08-19T12:57:11;2;2;
64229;PMS5003;50547;49.498;0.092;2022-08-19T12:59:40;3;3;
64229;PMS5003;50547;49.498;0.092;2022-08-19T13:02:10;3;3;
64229;PMS5003;50547;49.498;0.092;2022-08-19T13:04:39;2;2;
64229;PMS5003;50547;49.498;0.092;2022-08-19T13:07:06;2;2;
64229;PMS5003;50547;49.498;0.092;2022-08-19T13:09:36;1;1;
64229;PMS5003;50547;49.498;0.092;2022-08-19T13:12:06;2;2;
64229;PMS5003;50547;49.498;0.092;2022-08-19T13:14:35;2;2;
64229;PMS5003;50547;49.498;0.092;2022-08-19T13:17:05;2;2;
64229;PMS5003;50547;49.498;0.092;2022-08-19T13:19:35;3;3;
64229;PMS5003;50547;49.498;0.092;2022-08-19T13:22:05;2;2;
64229;PMS5003;50547;49.498;0.092;2022-08-19T13:24:34;2;2;
64229;PMS5003;50547;49.498;0.092;2022-08-19T13:27:03;3;3;
64229;PMS5003;50547;49.498;0.092;2022-08-19T13:29:33;3;3;
64229;PMS5003;50547;49.498;0.092;2022-08-19T13:32:07;4;4;
64229;PMS5003;50547;49.498;0.092;2022-08-19T13:34:36;3;3;
64229;PMS5003;50547;49.498;0.092;2022-08-19T13:37:03;6;6;
64229;PMS5003;50547;49.498;0.092;2022-08-19T13:39:34;6;6;
64229;PMS5003;50547;49.498;0.092;2022-08-19T13:42:03;7;7;
64229;PMS5003;50547;49.498;0.092;2022-08-19T13:44:32;7;7;
64229;PMS5003;50547;49.498;0.092;2022-08-19T13:47:00;6;6;
64229;PMS5003;50547;49.498;0.092;2022-08-19T13:49:35;6;6;
64229;PMS5003;50547;49.498;0.092;2022-08-19T13:52:07;7;7;
64229;PMS5003;50547;49.498;0.092;2022-08-19T13:54:37;4;4;
64229;PMS5003;50547;49.498;0.092;2022-08-19T13:57:06;5;5;
64229;PMS5003;50547;49.498;0.092;2022-08-19T13:59:35;4;4;
64229;PMS5003;50547;49.498;0.092;2022-08-19T14:02:05;4;4;
64229;PMS5003;50547;49.498;0.092;2022-08-19T14:04:35;4;4;
64229;PMS5003;50547;49.498;0.092;2022-08-19T14:07:04;4;4;
64229;PMS5003;50547;49.498;0.092;2022-08-19T14:09:33;4;4;
64229;PMS5003;50547;49.498;0.092;2022-08-19T14:12:02;3;3;
64229;PMS5003;50547;49.498;0.092;2022-08-19T14:14:31;4;4;
64229;PMS5003;50547;49.498;0.092;2022-08-19T14:17:05;3;3;
64229;PMS5003;50547;49.498;0.092;2022-08-19T14:19:35;3;3;
64229;PMS5003;50547;49.498;0.092;2022-08-19T14:22:01;3;3;
64229;PMS5003;50547;49.498;0.092;2022-08-19T14:24:30;3;3;
64229;PMS5003;50547;49.498;0.092;2022-08-19T14:26:59;3;3;
64229;PMS5003;50547;49.498;0.092;2022-08-19T14:29:29;3;3;
64229;PMS5003;50547;49.498;0.092;2022-08-19T14:31:57;3;3;
64229;PMS5003;50547;49.498;0.092;2022-08-19T14:34:26;3;3;
64229;PMS5003;50547;49.498;0.092;2022-08-19T14:36:56;3;3;
64229;PMS5003;50547;49.498;0.092;2022-08-19T14:39:24;4;4;
64229;PMS5003;50547;49.498;0.092;2022-08-19T14:41:54;4;4;
64229;PMS5003;50547;49.498;0.092;2022-08-19T14:44:23;3;3;
64229;PMS5003;50547;49.498;0.092;2022-08-19T14:46:52;3;3;
64229;PMS5003;50547;49.498;0.092;2022-08-19T14:49:21;4;4;
64229;PMS5003;50547;49.498;0.092;2022-08-19T14:51:47;4;4;
64229;PMS5003;50547;49.498;0.092;2022-08-19T14:54:16;4;4;
64229;PMS5003;50547;49.498;0.092;2022-08-19T14:56:45;3;3;
64229;PMS5003;50547;49.498;0.092;2022-08-19T14:59:14;4;4;
64229;PMS5003;50547;49.498;0.092;2022-08-19T15:01:44;4;4;
64229;PMS5003;50547;49.498;0.092;2022-08-19T15:04:18;4;4;
64229;PMS5003;50547;49.498;0.092;2022-08-19T15:06:45;4;4;
64229;PMS5003;50547;49.498;0.092;2022-08-19T15:09:14;4;4;
64229;PMS5003;50547;49.498;0.092;2022-08-19T15:11:43;3;3;
64229;PMS5003;50547;49.498;0.092;2022-08-19T15:14:12;4;4;
64229;PMS5003;50547;49.498;0.092;2022-08-19T15:16:41;3;3;
64229;PMS5003;50547;49.498;0.092;2022-08-19T15:19:10;4;4;
64229;PMS5003;50547;49.498;0.092;2022-08-19T15:21:39;3;3;
64229;PMS5003;50547;49.498;0.092;2022-08-19T15:24:08;3;3;
64229;PMS5003;50547;49.498;0.092;2022-08-19T15:26:34;4;4;
64229;PMS5003;50547;49.498;0.092;2022-08-19T15:29:04;3;3;
64229;PMS5003;50547;49.498;0.092;2022-08-19T15:31:33;4;4;
64229;PMS5003;50547;49.498;0.092;2022-08-19T15:34:02;4;4;
64229;PMS5003;50547;49.498;0.092;2022-08-19T15:36:29;4;4;
64229;PMS5003;50547;49.498;0.092;2022-08-19T15:38:58;4;4;
64229;PMS5003;50547;49.498;0.092;2022-08-19T15:41:29;4;4;
64229;PMS5003;50547;49.498;0.092;2022-08-19T15:43:59;3;3;
64229;PMS5003;50547;49.498;0.092;2022-08-19T15:46:38;4;4;
64229;PMS5003;50547;49.498;0.092;2022-08-19T15:49:09;3;3;
64229;PMS5003;50547;49.498;0.092;2022-08-19T15:51:41;4;4;
64229;PMS5003;50547;49.498;0.092;2022-08-19T15:54:10;4;4;
64229;PMS5003;50547;49.498;0.092;2022-08-19T15:56:40;4;4;
64229;PMS5003;50547;49.498;0.092;2022-08-19T15:59:10;4;4;
64229;PMS5003;50547;49.498;0.092;2022-08-19T16:01:39;5;5;
64229;PMS5003;50547;49.498;0.092;2022-08-19T16:04:08;5;5;
64229;PMS5003;50547;49.498;0.092;2022-08-19T16:06:37;7;7;
64229;PMS5003;50547;49.498;0.092;2022-08-19T16:09:08;5;5;
64229;PMS5003;50547;49.498;0.092;2022-08-19T16:11:37;5;5;
64229;PMS5003;50547;49.498;0.092;2022-08-19T16:14:06;5;5;
64229;PMS5003;50547;49.498;0.092;2022-08-19T16:16:34;5;5;
64229;PMS5003;50547;49.498;0.092;2022-08-19T16:19:04;5;5;
64229;PMS5003;50547;49.498;0.092;2022-08-19T16:21:35;5;5;
64229;PMS5003;50547;49.498;0.092;2022-08-19T16:24:05;5;5;
64229;PMS5003;50547;49.498;0.092;2022-08-19T16:26:35;6;6;
64229;PMS5003;50547;49.498;0.092;2022-08-19T16:29:05;5;5;
64229;PMS5003;50547;49.498;0.092;2022-08-19T16:31:35;5;5;
64229;PMS5003;50547;49.498;0.092;2022-08-19T16:34:04;7;7;
64229;PMS5003;50547;49.498;0.092;2022-08-19T16:36:39;3;3;
64229;PMS5003;50547;49.498;0.092;2022-08-19T16:39:09;5;5;
64229;PMS5003;50547;49.498;0.092;2022-08-19T16:41:40;4;4;
64229;PMS5003;50547;49.498;0.092;2022-08-19T16:44:11;5;5;
64229;PMS5003;50547;49.498;0.092;2022-08-19T16:46:39;5;5;
64229;PMS5003;50547;49.498;0.092;2022-08-19T16:49:09;4;4;
64229;PMS5003;50547;49.498;0.092;2022-08-19T16:51:39;4;4;
64229;PMS5003;50547;49.498;0.092;2022-08-19T16:54:09;6;6;
64229;PMS5003;50547;49.498;0.092;2022-08-19T16:56:39;5;5;
64229;PMS5003;50547;49.498;0.092;2022-08-19T16:59:08;5;5;
64229;PMS5003;50547;49.498;0.092;2022-08-19T17:01:38;5;5;
64229;PMS5003;50547;49.498;0.092;2022-08-19T17:04:08;4;4;
64229;PMS5003;50547;49.498;0.092;2022-08-19T17:06:38;4;4;
64229;PMS5003;50547;49.498;0.092;2022-08-19T17:09:07;4;4;
64229;PMS5003;50547;49.498;0.092;2022-08-19T17:11:36;5;5;